Time;durP1;ratioP1;P1;durP2;ratioP2;P2;SDS_P1;SDS_P2;PMS_P1;PMS_P2;Temp;Humidity;BMP_temperature;BMP_pressure;BME280_temperature;BME280_humidity;BME280_pressure;Samples;Min_cycle;Max_cycle;Signal;HPM_P1;HPM_P2
2022/12/26 00:02:22;;;;;;;8.60;7.07;;;;;;;10.48;100.00;98823.38;4949226;29;20208;-79
2022/12/26 00:04:52;;;;;;;9.93;7.57;;;;;;;10.48;100.00;98822.56;4955997;28;20286;-80
2022/12/26 00:07:22;;;;;;;10.93;7.30;;;;;;;10.54;100.00;98814.19;4967292;28;20279;-80
2022/12/26 00:09:50;;;;;;;10.47;7.47;;;;;;;10.52;100.00;98816.94;4967611;28;20202;-80
2022/12/26 00:12:23;;;;;;;10.07;7.30;;;;;;;10.54;100.00;98816.84;4968260;28;20200;-80
2022/12/26 00:14:53;;;;;;;10.33;7.23;;;;;;;10.47;100.00;98810.25;4918018;29;20239;-79
2022/12/26 00:17:27;;;;;;;8.90;6.33;;;;;;;10.56;100.00;98791.94;4945528;29;20279;-79
2022/12/26 00:19:57;;;;;;;9.13;6.83;;;;;;;10.61;100.00;98799.53;4944379;29;20204;-79
2022/12/26 00:22:27;;;;;;;9.93;7.20;;;;;;;10.55;100.00;98806.13;4942741;29;20216;-79
2022/12/26 00:24:56;;;;;;;9.90;7.20;;;;;;;10.63;100.00;98802.97;4935750;29;20197;-79
2022/12/26 00:27:50;;;;;;;10.70;7.07;;;;;;;10.65;100.00;98790.44;4876604;29;20198;-79
2022/12/26 00:30:19;;;;;;;8.67;6.67;;;;;;;10.57;100.00;98771.59;4890604;29;20238;-79
2022/12/26 00:32:48;;;;;;;11.97;7.23;;;;;;;10.61;100.00;98781.00;4890296;29;20206;-79
2022/12/26 00:35:23;;;;;;;8.80;6.33;;;;;;;10.60;100.00;98769.56;4843886;29;20215;-79
2022/12/26 00:37:53;;;;;;;9.90;6.73;;;;;;;10.54;100.00;98758.59;4867566;29;20199;-79
2022/12/26 00:40:27;;;;;;;9.10;6.80;;;;;;;10.64;100.00;98766.72;4910746;29;20208;-82
2022/12/26 00:43:03;;;;;;;9.17;6.97;;;;;;;10.58;100.00;98770.63;4911826;29;20711;-79
2022/12/26 00:45:33;;;;;;;9.70;6.27;;;;;;;10.66;100.00;98788.66;4935787;29;20371;-79
2022/12/26 00:48:09;;;;;;;11.03;6.70;;;;;;;10.65;100.00;98779.00;4931126;29;20204;-79
2022/12/26 00:50:39;;;;;;;9.13;6.23;;;;;;;10.66;100.00;98786.00;4936697;29;20259;-79
2022/12/26 00:53:10;;;;;;;9.73;6.73;;;;;;;10.58;100.00;98795.31;4971427;28;20232;-79
2022/12/26 00:55:40;;;;;;;8.30;6.40;;;;;;;10.63;100.00;98795.00;4974195;28;20196;-79
2022/12/26 00:58:11;;;;;;;7.90;6.40;;;;;;;10.73;100.00;98792.56;4977493;28;20207;-79
2022/12/26 01:00:41;;;;;;;9.10;6.17;;;;;;;10.56;100.00;98767.25;4969968;28;20190;-79
2022/12/26 01:03:13;;;;;;;7.40;6.27;;;;;;;10.58;100.00;98775.94;5004770;28;20202;-80
2022/12/26 01:05:45;;;;;;;8.70;6.50;;;;;;;10.67;100.00;98777.94;5014699;28;20249;-80
2022/12/26 01:08:19;;;;;;;11.00;6.87;;;;;;;10.64;100.00;98772.03;5014065;28;20202;-80
2022/12/26 01:10:53;;;;;;;7.63;5.83;;;;;;;10.65;100.00;98771.06;5007327;28;20253;-81
2022/12/26 01:13:27;;;;;;;9.43;6.47;;;;;;;10.70;100.00;98780.38;5013583;28;20201;-79
2022/12/26 01:15:58;;;;;;;9.33;6.27;;;;;;;10.63;100.00;98786.22;5008046;28;20189;-79
2022/12/26 01:18:27;;;;;;;8.50;6.43;;;;;;;10.57;100.00;98788.34;4992491;28;20200;-79
2022/12/26 01:21:00;;;;;;;9.40;6.17;;;;;;;10.68;100.00;98792.88;5031501;28;20697;-79
2022/12/26 01:23:29;;;;;;;8.47;6.50;;;;;;;10.66;100.00;98781.53;5027364;28;20566;-80
2022/12/26 01:25:58;;;;;;;9.00;6.80;;;;;;;10.71;100.00;98794.44;5035260;28;20328;-79
2022/12/26 01:28:49;;;;;;;9.27;5.93;;;;;;;10.71;100.00;98797.09;4978858;28;20199;-79
2022/12/26 01:31:21;;;;;;;10.97;6.30;;;;;;;10.78;100.00;98798.38;4990922;28;20245;-79
2022/12/26 01:33:50;;;;;;;9.33;5.87;;;;;;;10.68;100.00;98802.63;4927042;28;20199;-79
2022/12/26 01:36:19;;;;;;;9.37;6.17;;;;;;;10.74;100.00;98797.75;4977626;28;20635;-78
2022/12/26 01:38:47;;;;;;;8.13;5.50;;;;;;;10.78;100.00;98796.56;4993837;28;20191;-79
2022/12/26 01:41:23;;;;;;;7.93;5.83;;;;;;;10.85;100.00;98797.00;4931718;29;20224;-79
2022/12/26 01:43:57;;;;;;;7.50;5.67;;;;;;;10.80;100.00;98788.50;4939163;29;20212;-79
2022/12/26 01:46:32;;;;;;;7.87;5.90;;;;;;;10.85;100.00;98800.47;4949631;28;20647;-79
2022/12/26 01:49:06;;;;;;;7.23;5.03;;;;;;;10.73;100.00;98797.88;4989413;28;20218;-79
2022/12/26 01:51:42;;;;;;;9.20;5.40;;;;;;;10.82;100.00;98799.88;4973691;28;20199;-79
2022/12/26 01:54:13;;;;;;;8.10;5.87;;;;;;;10.80;100.00;98797.28;4974258;28;20198;-79
2022/12/26 01:57:10;;;;;;;8.47;5.27;;;;;;;10.87;100.00;98811.81;4973201;28;20290;-79
2022/12/26 01:59:42;;;;;;;8.67;5.10;;;;;;;10.89;100.00;98811.69;4971862;28;20204;-79
2022/12/26 02:02:11;;;;;;;8.90;5.33;;;;;;;10.85;100.00;98815.53;5000256;28;20222;-79
2022/12/26 02:07:36;;;;;;;8.60;5.20;;;;;;;10.93;100.00;98820.31;5013051;28;20206;-80
2022/12/26 02:10:09;;;;;;;6.93;4.93;;;;;;;11.01;100.00;98818.81;5005685;28;20198;-80
2022/12/26 02:12:39;;;;;;;7.33;5.17;;;;;;;11.07;100.00;98825.44;5008246;28;20194;-80
2022/12/26 02:15:12;;;;;;;5.90;4.57;;;;;;;11.04;100.00;98828.31;5011737;28;20195;-80
2022/12/26 02:17:44;;;;;;;7.97;5.30;;;;;;;10.95;100.00;98819.22;5010537;28;20194;-80
2022/12/26 02:20:20;;;;;;;7.33;4.90;;;;;;;11.03;100.00;98819.53;4946478;28;20190;-80
2022/12/26 02:23:36;;;;;;;10.50;5.40;;;;;;;11.02;100.00;98822.28;4978074;28;20714;-80
2022/12/26 02:26:32;;;;;;;6.63;4.70;;;;;;;11.02;100.00;98815.19;4953278;29;20208;-80
2022/12/26 02:30:00;;;;;;;9.50;4.97;;;;;;;10.98;100.00;98824.31;5009957;28;20218;-80
2022/12/26 02:32:46;;;;;;;7.73;4.80;;;;;;;10.84;100.00;98822.63;4933907;29;20192;-80
2022/12/26 02:35:25;;;;;;;8.50;5.00;;;;;;;10.80;100.00;98815.00;4947949;29;20733;-80
2022/12/26 02:38:07;;;;;;;6.77;5.03;;;;;;;10.83;100.00;98822.75;4968162;28;20222;-79
2022/12/26 02:40:47;;;;;;;4.80;4.30;;;;;;;10.95;100.00;98810.44;5005016;28;20217;-80
2022/12/26 02:43:24;;;;;;;6.87;4.93;;;;;;;10.75;100.00;98822.44;4977807;28;20256;-80
2022/12/26 02:48:58;;;;;;;6.30;4.93;;;;;;;10.92;100.00;98818.59;5009790;28;20202;-80
2022/12/26 03:14:29;;;;;;;5.97;4.77;;;;;;;11.02;100.00;98827.59;5031318;28;20204;-80
2022/12/26 03:17:20;;;;;;;5.90;4.37;;;;;;;10.99;100.00;98822.50;5051008;28;20196;-80
2022/12/26 03:20:00;;;;;;;5.50;4.30;;;;;;;10.93;100.00;98813.19;5053357;28;20208;-80
2022/12/26 03:22:37;;;;;;;7.43;4.60;;;;;;;11.02;100.00;98809.03;5050094;28;20637;-80
2022/12/26 03:27:57;;;;;;;9.03;4.33;;;;;;;10.98;100.00;98816.34;5052738;28;20254;-80
2022/12/26 03:36:00;;;;;;;7.13;4.53;;;;;;;11.02;100.00;98824.94;5072509;28;20228;-80
2022/12/26 03:38:50;;;;;;;6.33;4.40;;;;;;;10.99;100.00;98815.38;5036171;28;20203;-80
2022/12/26 04:19:26;;;;;;;5.43;3.70;;;;;;;10.86;100.00;98788.09;5072858;28;20200;-80
2022/12/26 04:44:46;;;;;;;4.27;3.20;;;;;;;11.32;100.00;98793.56;4971494;28;20259;-79
2022/12/26 04:47:17;;;;;;;4.80;3.00;;;;;;;11.37;100.00;98778.16;4971580;28;20203;-79
2022/12/26 04:55:18;;;;;;;5.17;2.80;;;;;;;11.45;100.00;98796.16;4969844;28;20204;-79
2022/12/26 04:57:47;;;;;;;5.40;3.00;;;;;;;11.51;100.00;98792.22;5019773;28;20276;-79
2022/12/26 05:00:17;;;;;;;5.40;2.70;;;;;;;11.55;100.00;98777.78;5061073;28;20200;-79
2022/12/26 05:11:13;;;;;;;5.53;3.10;;;;;;;11.25;100.00;98804.72;5071033;28;20605;-79
2022/12/26 05:13:45;;;;;;;4.47;2.93;;;;;;;11.38;100.00;98786.97;5066608;28;20246;-79
2022/12/26 05:30:18;;;;;;;6.37;2.87;;;;;;;11.66;100.00;98783.97;5030596;28;20251;-79
2022/12/26 05:35:35;;;;;;;4.47;2.67;;;;;;;11.40;100.00;98785.91;5030999;28;20252;-79
2022/12/26 05:38:04;;;;;;;6.60;2.90;;;;;;;11.41;100.00;98778.81;5063951;28;20189;-79
2022/12/26 05:40:33;;;;;;;4.60;3.10;;;;;;;11.34;100.00;98782.84;5070227;28;20193;-79
2022/12/26 05:43:01;;;;;;;5.10;3.17;;;;;;;11.32;100.00;98790.06;5066992;28;20220;-78
2022/12/26 05:45:29;;;;;;;8.97;3.20;;;;;;;11.37;100.00;98788.75;5069551;28;20223;-79
2022/12/26 05:47:59;;;;;;;7.83;3.07;;;;;;;11.38;100.00;98803.72;5068671;28;20189;-79
2022/12/26 05:50:28;;;;;;;5.17;3.47;;;;;;;11.35;100.00;98789.84;5067107;28;20192;-82
2022/12/26 05:53:00;;;;;;;4.07;3.00;;;;;;;11.33;100.00;98783.81;5065582;28;20317;-79
2022/12/26 05:55:28;;;;;;;6.90;3.97;;;;;;;11.16;100.00;98782.38;5069115;28;20605;-79
2022/12/26 05:58:00;;;;;;;7.67;4.17;;;;;;;11.06;100.00;98790.16;5075428;28;20682;-79
2022/12/26 06:00:41;;;;;;;4.87;3.37;;;;;;;11.11;100.00;98789.84;5071950;28;20279;-81
2022/12/26 06:03:28;;;;;;;4.43;3.13;;;;;;;11.16;100.00;98806.25;4974008;28;20216;-79
2022/12/26 06:05:57;;;;;;;6.20;3.37;;;;;;;11.20;100.00;98813.03;4935845;29;20280;-79
2022/12/26 06:08:27;;;;;;;5.17;3.30;;;;;;;11.21;100.00;98811.22;4928983;29;20242;-79
2022/12/26 06:10:57;;;;;;;6.50;3.37;;;;;;;11.27;100.00;98814.25;4933976;29;20752;-79
2022/12/26 06:13:26;;;;;;;5.53;3.63;;;;;;;11.25;100.00;98807.38;4928538;29;20205;-79
2022/12/26 06:15:54;;;;;;;4.90;4.37;;;;;;;11.11;100.00;98798.63;4931361;29;20204;-79
2022/12/26 06:18:23;;;;;;;7.20;4.00;;;;;;;10.92;100.00;98810.66;4932159;29;20197;-79
2022/12/26 06:20:51;;;;;;;7.87;3.93;;;;;;;10.85;100.00;98818.19;4947150;28;20195;-79
2022/12/26 06:23:20;;;;;;;6.13;3.90;;;;;;;10.74;100.00;98813.66;4991063;28;20216;-80
2022/12/26 06:25:55;;;;;;;8.50;5.87;;;;;;;10.81;100.00;98816.72;5009331;28;20229;-80
2022/12/26 06:28:25;;;;;;;5.30;4.43;;;;;;;10.87;100.00;98826.88;5052708;28;20195;-79
2022/12/26 06:30:54;;;;;;;5.83;3.87;;;;;;;10.85;100.00;98820.84;5070445;28;20231;-79
2022/12/26 06:33:25;;;;;;;6.93;5.00;;;;;;;10.79;100.00;98822.09;5067388;28;20264;-79
2022/12/26 06:35:54;;;;;;;7.23;4.43;;;;;;;10.82;100.00;98837.81;5009521;28;20187;-79
2022/12/26 06:38:23;;;;;;;6.40;4.60;;;;;;;10.81;100.00;98846.72;5003895;28;20191;-78
2022/12/26 06:40:56;;;;;;;10.10;5.50;;;;;;;10.86;100.00;98841.91;5011118;28;20198;-79
2022/12/26 06:43:26;;;;;;;10.53;5.10;;;;;;;10.84;100.00;98838.53;4952491;29;20307;-79
2022/12/26 06:45:57;;;;;;;12.60;7.10;;;;;;;10.92;100.00;98831.84;4946823;29;20196;-79
2022/12/26 06:48:26;;;;;;;7.50;5.50;;;;;;;10.84;100.00;98835.03;4948190;29;20208;-79
2022/12/26 06:50:55;;;;;;;7.93;5.20;;;;;;;10.91;100.00;98849.56;4949602;29;20322;-79
2022/12/26 06:53:25;;;;;;;11.50;6.90;;;;;;;10.94;100.00;98854.63;4956769;28;20278;-79
2022/12/26 06:55:58;;;;;;;11.27;6.40;;;;;;;10.96;100.00;98846.56;4931221;29;20208;-79
2022/12/26 06:58:27;;;;;;;11.00;6.27;;;;;;;10.91;100.00;98846.91;4929019;29;20268;-79
2022/12/26 07:00:55;;;;;;;8.20;5.07;;;;;;;10.84;100.00;98849.13;4905029;28;20200;-79
2022/12/26 07:03:25;;;;;;;8.27;4.80;;;;;;;10.83;100.00;98854.53;4963002;28;20204;-79
2022/12/26 07:05:54;;;;;;;7.13;4.03;;;;;;;10.97;100.00;98843.81;4930367;29;20260;-79
2022/12/26 07:08:24;;;;;;;8.37;4.50;;;;;;;10.80;100.00;98850.28;4898321;29;20682;-79
2022/12/26 07:10:59;;;;;;;7.70;4.70;;;;;;;10.83;100.00;98858.03;4894872;29;20201;-82
2022/12/26 07:13:32;;;;;;;8.53;4.57;;;;;;;10.74;100.00;98852.53;4840784;29;20196;-79
2022/12/26 07:16:01;;;;;;;26.23;12.90;;;;;;;10.86;100.00;98863.09;4839681;29;20216;-79
2022/12/26 07:18:32;;;;;;;6.87;4.03;;;;;;;10.77;100.00;98863.75;4839179;29;20301;-79
2022/12/26 07:21:06;;;;;;;8.37;3.67;;;;;;;10.81;100.00;98862.59;4834006;29;20197;-80
2022/12/26 07:23:39;;;;;;;5.80;3.67;;;;;;;10.78;100.00;98860.16;4838356;29;20224;-80
2022/12/26 07:26:09;;;;;;;6.17;3.53;;;;;;;10.79;100.00;98863.63;4883082;28;20198;-80
2022/12/26 07:28:38;;;;;;;7.33;3.60;;;;;;;10.93;100.00;98866.19;5005610;28;20194;-79
2022/12/26 07:31:09;;;;;;;6.47;3.53;;;;;;;10.95;100.00;98874.03;5021678;28;20192;-79
2022/12/26 07:33:39;;;;;;;6.03;3.50;;;;;;;11.00;100.00;98875.41;5008219;28;20208;-80
2022/12/26 07:36:08;;;;;;;9.27;3.77;;;;;;;10.94;100.00;98867.88;5002267;28;20236;-80
2022/12/26 07:38:37;;;;;;;7.27;3.80;;;;;;;10.76;100.00;98870.00;4877557;29;20247;-80
2022/12/26 07:43:49;;;;;;;6.27;4.30;;;;;;;10.88;100.00;98866.50;4820559;29;20233;-80
2022/12/26 07:46:17;;;;;;;5.60;3.93;;;;;;;10.89;100.00;98885.88;4812127;29;20212;-79
2022/12/26 07:48:47;;;;;;;11.67;5.80;;;;;;;10.87;100.00;98880.69;4785705;30;20284;-80
2022/12/26 07:51:16;;;;;;;10.23;6.07;;;;;;;10.89;100.00;98885.88;4797429;29;20212;-80
2022/12/26 07:53:47;;;;;;;5.23;3.77;;;;;;;10.97;100.00;98886.22;4836884;29;20212;-80
2022/12/26 07:56:19;;;;;;;7.77;4.77;;;;;;;10.92;100.00;98887.50;4842518;29;20252;-80
2022/12/26 07:58:49;;;;;;;8.47;4.63;;;;;;;10.90;100.00;98900.81;4877609;29;20213;-79
2022/12/26 08:01:19;;;;;;;6.37;4.90;;;;;;;10.95;100.00;98896.06;4927898;29;20203;-80
2022/12/26 08:03:49;;;;;;;6.23;3.73;;;;;;;10.97;100.00;98903.91;5000281;28;20206;-79
2022/12/26 08:06:19;;;;;;;10.80;4.53;;;;;;;10.76;100.00;98920.34;5023229;28;20209;-80
2022/12/26 08:08:48;;;;;;;5.07;3.80;;;;;;;10.86;100.00;98921.41;5028327;28;20650;-80
2022/12/26 08:11:22;;;;;;;6.70;4.00;;;;;;;10.95;100.00;98914.63;5027335;28;20280;-79
2022/12/26 08:13:52;;;;;;;7.40;3.67;;;;;;;10.95;100.00;98932.31;5050894;28;20200;-80
2022/12/26 08:16:23;;;;;;;5.73;3.20;;;;;;;10.99;100.00;98917.91;5064755;28;20200;-80
2022/12/26 08:18:51;;;;;;;6.47;3.53;;;;;;;10.77;100.00;98921.19;5064349;28;20188;-80
2022/12/26 08:21:20;;;;;;;6.80;3.60;;;;;;;10.85;100.00;98914.41;5065530;28;20272;-80
2022/12/26 08:23:49;;;;;;;5.13;2.87;;;;;;;10.92;100.00;98909.53;5065271;28;20196;-79
2022/12/26 08:26:22;;;;;;;5.23;3.00;;;;;;;10.86;100.00;98896.72;5004779;28;20210;-80
2022/12/26 08:28:52;;;;;;;5.07;3.10;;;;;;;10.82;100.00;98911.13;5004008;28;20205;-80
2022/12/26 08:31:23;;;;;;;6.57;3.40;;;;;;;10.78;100.00;98897.22;5007897;28;20198;-80
2022/12/26 08:33:57;;;;;;;5.73;3.30;;;;;;;10.78;100.00;98897.22;4933601;29;20253;-80
2022/12/26 08:36:25;;;;;;;6.63;3.00;;;;;;;10.72;100.00;98900.31;4927031;29;20193;-80
2022/12/26 08:38:54;;;;;;;5.43;3.10;;;;;;;10.70;100.00;98896.91;4926871;29;20648;-80
2022/12/26 08:41:24;;;;;;;6.03;2.50;;;;;;;10.68;100.00;98908.56;4932154;29;20201;-80
2022/12/26 08:43:56;;;;;;;4.07;2.13;;;;;;;10.71;100.00;98911.88;4943544;28;20250;-80
2022/12/26 08:46:48;;;;;;;3.67;2.10;;;;;;;10.76;100.00;98927.44;4991061;28;20199;-80
2022/12/26 08:49:17;;;;;;;3.60;2.07;;;;;;;10.81;100.00;98926.19;4970415;28;20259;-80
2022/12/26 08:51:47;;;;;;;3.60;2.00;;;;;;;10.69;100.00;98927.00;5010862;28;20251;-80
2022/12/26 08:54:18;;;;;;;5.00;1.93;;;;;;;10.72;100.00;98939.22;5070137;28;20196;-80
2022/12/26 08:56:48;;;;;;;3.03;1.60;;;;;;;10.70;100.00;98939.28;5005757;28;20201;-79
2022/12/26 08:59:19;;;;;;;2.17;1.23;;;;;;;10.77;100.00;98942.38;5025833;28;20195;-79
2022/12/26 09:01:55;;;;;;;5.10;1.50;;;;;;;10.79;100.00;98935.16;5014988;28;20190;-80
2022/12/26 09:04:25;;;;;;;2.53;1.23;;;;;;;10.75;100.00;98961.03;5009607;28;20198;-80
2022/12/26 09:06:56;;;;;;;3.30;1.50;;;;;;;10.83;100.00;98955.22;5010279;28;20412;-80
2022/12/26 09:09:25;;;;;;;2.93;1.03;;;;;;;10.74;100.00;98955.84;5011837;28;20194;-80
2022/12/26 09:11:53;;;;;;;2.63;1.30;;;;;;;10.71;100.00;98967.50;5003194;28;20199;-80
2022/12/26 09:14:25;;;;;;;1.83;1.30;;;;;;;10.76;100.00;98954.78;5006641;28;20202;-80
2022/12/26 09:16:55;;;;;;;2.03;1.20;;;;;;;10.73;100.00;98965.59;4952366;29;20196;-81
2022/12/26 09:19:28;;;;;;;13.00;9.30;;;;;;;10.71;100.00;98978.09;4936664;29;20205;-80
2022/12/26 09:24:42;;;;;;;1.73;1.20;;;;;;;10.82;100.00;98957.03;4935357;29;20205;-80
2022/12/26 09:27:16;;;;;;;2.37;1.40;;;;;;;10.71;100.00;98966.63;4943263;28;20207;-81
2022/12/26 09:29:49;;;;;;;1.90;1.10;;;;;;;10.80;100.00;98984.53;4985217;28;20274;-80
2022/12/26 09:32:18;;;;;;;4.60;2.07;;;;;;;10.85;100.00;98996.53;4985733;28;20199;-79
2022/12/26 09:34:52;;;;;;;2.50;1.50;;;;;;;10.79;100.00;99012.00;4988379;28;20226;-79
2022/12/26 09:37:21;;;;;;;3.03;1.63;;;;;;;10.77;100.00;99001.50;4996868;28;20261;-79
2022/12/26 09:39:49;;;;;;;1.47;1.00;;;;;;;10.78;100.00;99003.19;5008062;28;20194;-80
2022/12/26 09:42:29;;;;;;;2.40;1.10;;;;;;;10.71;100.00;98996.63;4970906;28;20207;-80
2022/12/26 09:45:06;;;;;;;4.37;2.80;;;;;;;10.72;100.00;99008.94;4971981;28;20219;-79
2022/12/26 09:47:40;;;;;;;2.50;1.40;;;;;;;10.68;100.00;99014.53;4986331;28;20196;-80
2022/12/26 09:50:16;;;;;;;3.17;1.30;;;;;;;10.80;100.00;98982.75;5028338;28;20190;-79
2022/12/26 09:52:51;;;;;;;1.80;1.20;;;;;;;10.67;100.00;98978.38;5008632;28;20206;-80
2022/12/26 09:55:30;;;;;;;1.30;0.90;;;;;;;10.76;100.00;98983.06;5005983;28;20241;-81
2022/12/26 09:58:06;;;;;;;1.30;1.20;;;;;;;10.81;100.00;98994.22;5013292;28;20198;-80
2022/12/26 10:00:47;;;;;;;2.73;2.40;;;;;;;10.89;100.00;98968.03;5005130;28;20201;-79
2022/12/26 10:03:15;;;;;;;2.93;1.60;;;;;;;10.96;100.00;98948.13;4947078;29;20196;-80
2022/12/26 10:06:03;;;;;;;24.83;15.83;;;;;;;10.88;100.00;98974.28;4893668;29;20222;-79
2022/12/26 10:08:45;;;;;;;3.07;2.10;;;;;;;10.98;100.00;98993.06;4892813;29;20255;-79
2022/12/26 10:11:19;;;;;;;1.83;1.37;;;;;;;10.88;100.00;98991.03;4917058;29;20232;-80
2022/12/26 10:13:55;;;;;;;3.43;1.30;;;;;;;10.93;100.00;98998.69;4932182;29;20192;-79
2022/12/26 10:16:42;;;;;;;1.53;1.20;;;;;;;10.92;100.00;98993.50;4931222;29;20205;-79
2022/12/26 10:19:26;;;;;;;4.50;1.60;;;;;;;10.97;100.00;98978.94;4934180;29;20201;-80
2022/12/26 10:22:15;;;;;;;4.33;1.40;;;;;;;11.01;100.00;98969.00;4975844;28;20206;-80
2022/12/26 10:24:45;;;;;;;3.00;1.60;;;;;;;11.00;100.00;98984.06;5055241;28;20276;-80
2022/12/26 10:27:17;;;;;;;1.80;1.10;;;;;;;11.08;100.00;98976.41;5070826;28;20216;-80
2022/12/26 10:29:52;;;;;;;2.13;1.33;;;;;;;11.15;100.00;98990.94;5064297;28;20236;-79
2022/12/26 10:32:29;;;;;;;3.03;1.50;;;;;;;11.24;100.00;98988.63;5069806;28;20204;-79
2022/12/26 10:34:59;;;;;;;3.20;1.50;;;;;;;11.27;100.00;98978.63;5012678;28;20253;-79
2022/12/26 10:37:33;;;;;;;1.83;1.53;;;;;;;11.39;100.00;98995.50;5012703;28;20191;-80
2022/12/26 10:40:14;;;;;;;3.83;1.40;;;;;;;11.35;100.00;98968.34;5009864;28;20190;-79
2022/12/26 10:42:44;;;;;;;3.33;1.67;;;;;;;11.45;100.00;98976.50;5004982;28;20202;-79
2022/12/26 10:45:16;;;;;;;2.03;1.40;;;;;;;11.55;100.00;98969.59;5003751;28;20249;-80
2022/12/26 10:47:48;;;;;;;3.07;1.40;;;;;;;11.60;100.00;98979.88;5004855;28;20234;-80
2022/12/26 10:50:18;;;;;;;2.67;1.70;;;;;;;11.59;100.00;98973.75;4965320;28;20206;-80
2022/12/26 10:52:57;;;;;;;2.03;1.47;;;;;;;11.67;100.00;98968.72;4985903;28;20192;-79
2022/12/26 10:55:29;;;;;;;2.60;1.50;;;;;;;11.75;100.00;98962.84;5004293;28;20237;-79
2022/12/26 10:58:03;;;;;;;3.23;1.53;;;;;;;11.80;100.00;98968.72;5009508;28;20195;-79
2022/12/26 11:00:32;;;;;;;2.30;1.60;;;;;;;11.73;100.00;98965.63;5005111;28;20253;-80
2022/12/26 11:03:07;;;;;;;3.23;1.70;;;;;;;11.72;100.00;98955.97;5007335;28;20194;-80
2022/12/26 11:05:40;;;;;;;3.40;1.43;;;;;;;11.78;100.00;98957.34;5005858;28;20185;-80
2022/12/26 11:08:36;;;;;;;2.90;1.50;;;;;;;11.75;100.00;98968.16;4973600;28;20207;-79
2022/12/26 11:11:14;;;;;;;3.90;1.80;;;;;;;11.84;100.00;98975.50;4984358;28;20517;-79
2022/12/26 11:13:49;;;;;;;3.87;1.60;;;;;;;11.79;100.00;98992.69;4915488;29;20205;-80
2022/12/26 11:16:25;;;;;;;4.70;3.17;;;;;;;11.63;100.00;98987.63;4912928;29;21337;-79
2022/12/26 11:19:08;;;;;;;2.40;1.90;;;;;;;11.52;100.00;98990.19;4916622;29;20249;-79
2022/12/26 11:21:36;;;;;;;3.33;1.77;;;;;;;11.54;100.00;98990.94;4915553;29;20190;-79
2022/12/26 11:24:22;;;;;;;3.80;2.10;;;;;;;11.62;100.00;98994.72;4911908;29;20253;-80
2022/12/26 11:29:41;;;;;;;4.27;1.90;;;;;;;11.56;100.00;98981.88;4992134;28;20733;-80
2022/12/26 11:32:18;;;;;;;5.07;2.33;;;;;;;11.67;100.00;98989.09;5028907;28;20192;-80
2022/12/26 11:34:50;;;;;;;3.70;1.90;;;;;;;11.79;100.00;98972.31;5052937;28;20197;-80
2022/12/26 11:37:26;;;;;;;5.67;2.23;;;;;;;11.74;100.00;98987.69;4989407;28;20202;-80
2022/12/26 11:39:56;;;;;;;5.07;2.33;;;;;;;11.62;100.00;98986.78;4986047;28;20193;-80
2022/12/26 11:42:28;;;;;;;3.23;2.40;;;;;;;11.67;100.00;98979.31;4952103;29;20196;-80
2022/12/26 11:45:08;;;;;;;4.83;2.23;;;;;;;11.62;100.00;98984.13;4946066;29;20208;-80
2022/12/26 11:47:38;;;;;;;2.70;1.90;;;;;;;11.62;100.00;98988.59;4948359;29;20239;-80
2022/12/26 11:50:20;;;;;;;3.27;1.80;;;;;;;11.52;100.00;98992.84;4946671;29;20200;-80
2022/12/26 11:52:54;;;;;;;3.07;1.70;;;;;;;11.65;100.00;98988.34;4950136;29;20211;-80
2022/12/26 11:55:41;;;;;;;1.90;1.60;;;;;;;11.74;100.00;98985.91;4974805;28;20210;-80
2022/12/26 11:58:24;;;;;;;4.17;2.10;;;;;;;11.76;100.00;98983.13;5008558;28;20206;-80
2022/12/26 12:01:08;;;;;;;1.50;1.40;;;;;;;11.80;100.00;98971.38;5029261;28;20201;-80
2022/12/26 12:03:40;;;;;;;3.30;2.30;;;;;;;11.94;100.00;98975.69;5052998;28;20185;-80
2022/12/26 12:06:31;;;;;;;2.63;1.67;;;;;;;11.91;100.00;98976.75;5050958;28;20248;-80
2022/12/26 12:09:11;;;;;;;2.93;1.80;;;;;;;11.92;100.00;98969.63;5044497;28;20212;-80
2022/12/26 12:11:48;;;;;;;2.80;2.00;;;;;;;11.95;100.00;98964.09;4993415;28;20206;-80
2022/12/26 12:14:29;;;;;;;4.90;2.50;;;;;;;11.98;100.00;98964.75;5005897;28;20198;-80
2022/12/26 12:17:10;;;;;;;2.37;1.80;;;;;;;11.98;100.00;98967.41;5005896;28;20205;-80
2022/12/26 12:20:03;;;;;;;2.30;1.40;;;;;;;11.67;100.00;98966.06;4986259;28;20203;-81
2022/12/26 12:23:17;;;;;;;1.90;1.60;;;;;;;11.76;100.00;98976.00;4982491;28;20199;-81
2022/12/26 12:26:00;;;;;;;2.33;1.53;;;;;;;11.61;100.00;98981.59;4983495;28;20203;-80
2022/12/26 12:29:02;;;;;;;3.97;1.90;;;;;;;11.71;100.00;98958.75;4987587;28;20195;-81
2022/12/26 12:31:45;;;;;;;2.77;1.63;;;;;;;11.60;100.00;98972.78;4968076;28;20195;-80
2022/12/26 12:34:23;;;;;;;1.73;1.10;;;;;;;11.73;100.00;98952.34;4966871;28;20282;-80
2022/12/26 12:37:02;;;;;;;0.90;0.80;;;;;;;11.87;100.00;98946.09;4999728;28;20214;-81
2022/12/26 12:39:51;;;;;;;1.80;1.00;;;;;;;11.91;100.00;98942.25;5031928;28;20201;-81
2022/12/26 12:42:37;;;;;;;5.97;1.80;;;;;;;11.91;100.00;98930.78;5027416;28;20654;-80
2022/12/26 12:45:25;;;;;;;2.43;1.20;;;;;;;11.87;100.00;98911.59;5024626;28;20205;-81
2022/12/26 12:48:17;;;;;;;2.20;1.00;;;;;;;11.91;100.00;98928.13;5024526;28;20226;-80
2022/12/26 12:50:54;;;;;;;1.80;0.90;;;;;;;11.94;100.00;98925.25;5026430;28;20637;-80
2022/12/26 12:53:40;;;;;;;1.93;1.10;;;;;;;11.85;100.00;98933.88;5032355;28;20276;-80
2022/12/26 12:56:24;;;;;;;1.47;1.00;;;;;;;11.85;100.00;98942.69;5028239;28;20656;-80
2022/12/26 12:59:04;;;;;;;1.40;0.80;;;;;;;11.93;100.00;98934.19;5028447;28;20202;-80
2022/12/26 13:01:43;;;;;;;2.70;1.00;;;;;;;11.91;100.00;98926.34;5029267;28;20256;-80
2022/12/26 13:04:17;;;;;;;1.40;0.90;;;;;;;11.81;100.00;98933.28;5030337;28;20232;-80
2022/12/26 13:06:53;;;;;;;1.83;1.10;;;;;;;11.74;100.00;98946.09;5029332;28;20224;-81
2022/12/26 13:09:25;;;;;;;2.40;1.10;;;;;;;11.65;100.00;98927.34;5032138;28;20255;-80
2022/12/26 13:12:01;;;;;;;1.57;1.00;;;;;;;11.63;100.00;98916.00;5023632;28;20205;-80
2022/12/26 13:14:36;;;;;;;3.83;1.00;;;;;;;11.64;100.00;98921.19;5032186;28;20202;-80
2022/12/26 13:17:11;;;;;;;2.53;1.10;;;;;;;11.56;100.00;98917.38;5031610;28;20193;-81
2022/12/26 13:19:44;;;;;;;2.67;1.07;;;;;;;11.48;100.00;98917.94;5030812;28;20197;-82
2022/12/26 13:24:22;;;;;;;1.03;0.77;;;;;;;11.64;100.00;98918.53;5033200;28;20198;-81
2022/12/26 13:25:18;;;;;;;3.13;1.30;;;;;;;11.51;100.00;98914.22;5029821;28;20201;-81
2022/12/26 13:27:51;;;;;;;3.87;1.73;;;;;;;11.44;100.00;98912.00;5031664;28;20217;-81
2022/12/26 13:30:21;;;;;;;2.37;1.30;;;;;;;11.47;100.00;98913.59;5055941;28;20228;-80
2022/12/26 13:32:57;;;;;;;1.93;1.00;;;;;;;11.55;100.00;98910.38;5060714;28;20204;-81
2022/12/26 13:35:52;;;;;;;4.87;1.50;;;;;;;11.50;100.00;98915.19;5022028;28;20639;-80
2022/12/26 13:38:23;;;;;;;3.57;1.00;;;;;;;11.42;100.00;98913.09;5066319;28;20203;-80
2022/12/26 13:43:53;;;;;;;2.03;1.07;;;;;;;11.38;100.00;98909.78;5062362;28;20246;-81
2022/12/26 13:44:03;;;;;;;2.53;1.23;;;;;;;11.40;100.00;98923.81;5071847;28;20193;-80
2022/12/26 13:46:38;;;;;;;3.93;1.30;;;;;;;11.40;100.00;98915.00;5069956;28;20320;-80
2022/12/26 13:49:28;;;;;;;1.73;1.17;;;;;;;11.44;100.00;98912.00;5064293;28;20228;-80
2022/12/26 13:51:59;;;;;;;2.57;1.33;;;;;;;11.32;100.00;98920.84;5072260;28;20670;-80
2022/12/26 13:54:29;;;;;;;17.50;13.43;;;;;;;11.40;100.00;98922.97;5065405;28;20204;-80
2022/12/26 13:57:43;;;;;;;3.90;1.57;;;;;;;11.54;100.00;98916.66;5068512;28;20204;-80
2022/12/26 14:00:23;;;;;;;2.60;1.50;;;;;;;11.44;100.00;98917.31;5071014;28;20215;-80
2022/12/26 14:03:15;;;;;;;2.90;1.30;;;;;;;11.45;100.00;98929.63;5072276;28;20643;-80
2022/12/26 14:06:19;;;;;;;3.17;1.70;;;;;;;11.35;100.00;98925.06;5075265;28;20200;-80
2022/12/26 14:09:34;;;;;;;3.00;1.20;;;;;;;11.69;100.00;98915.56;5071412;28;20257;-80
2022/12/26 14:12:21;;;;;;;2.93;1.43;;;;;;;11.50;100.00;98917.84;4992328;28;20205;-80
2022/12/26 14:15:03;;;;;;;4.37;1.50;;;;;;;11.55;100.00;98907.72;4988319;28;20187;-81
2022/12/26 14:17:42;;;;;;;3.00;1.37;;;;;;;11.56;100.00;98915.56;4932844;29;20209;-80
2022/12/26 14:20:27;;;;;;;1.93;1.33;;;;;;;11.44;100.00;98909.34;4932191;29;20281;-81